Time;durP1;ratioP1;P1;durP2;ratioP2;P2;SDS_P1;SDS_P2;PMS_P1;PMS_P2;Temp;Humidity;BMP_temperature;BMP_pressure;BME280_temperature;BME280_humidity;BME280_pressure;Samples;Min_cycle;Max_cycle;Signal;HPM_P1;HPM_P2
2023/05/31 00:01:23;;;;;;;12.50;8.10;;;;;;;17.66;62.65;100443.13;108026;1254;71695;-80
2023/05/31 00:03:51;;;;;;;12.70;8.30;;;;;;;17.62;62.61;100439.83;107970;1254;72620;-81
2023/05/31 00:06:20;;;;;;;12.00;8.70;;;;;;;17.56;62.75;100445.98;108086;1256;61865;-80
2023/05/31 00:08:47;;;;;;;14.80;8.60;;;;;;;17.51;62.81;100442.86;107984;1254;60377;-80
2023/05/31 00:11:14;;;;;;;13.30;7.90;;;;;;;17.47;62.98;100444.33;108083;1254;75023;-81
2023/05/31 00:13:41;;;;;;;13.10;8.40;;;;;;;17.42;62.97;100443.53;108005;1255;72516;-81
2023/05/31 00:16:09;;;;;;;11.40;8.20;;;;;;;17.36;63.02;100439.83;108113;1254;71798;-80
2023/05/31 00:18:57;;;;;;;12.20;9.10;;;;;;;17.30;63.29;100441.40;108077;1254;62154;-80
2023/05/31 00:21:25;;;;;;;13.70;8.30;;;;;;;17.27;63.65;100436.78;108084;1254;60339;-80
2023/05/31 00:23:52;;;;;;;13.10;8.60;;;;;;;17.26;63.94;100437.20;108087;1254;73641;-80
2023/05/31 00:26:19;;;;;;;13.20;9.50;;;;;;;17.25;64.40;100437.09;108115;1254;72866;-80
2023/05/31 00:28:47;;;;;;;12.60;8.30;;;;;;;17.25;64.77;100435.48;108100;1254;72709;-80
2023/05/31 00:31:14;;;;;;;13.00;8.40;;;;;;;17.26;65.07;100439.23;108048;1254;62172;-79
2023/05/31 00:33:43;;;;;;;13.40;8.70;;;;;;;17.26;65.37;100438.98;108172;1254;61431;-80
2023/05/31 00:36:11;;;;;;;11.70;8.40;;;;;;;17.26;65.62;100442.08;108148;1254;73588;-80
2023/05/31 00:38:37;;;;;;;16.50;8.20;;;;;;;17.28;65.83;100446.33;108121;1258;72958;-81
2023/05/31 00:41:07;;;;;;;12.90;9.10;;;;;;;17.27;66.04;100442.28;107991;1254;72507;-81
2023/05/31 00:43:35;;;;;;;13.70;8.70;;;;;;;17.28;66.14;100445.98;108122;1254;61952;-81
2023/05/31 00:46:02;;;;;;;13.50;9.00;;;;;;;17.29;66.17;100445.45;108184;1254;61080;-80
2023/05/31 00:48:30;;;;;;;13.40;8.60;;;;;;;17.28;66.28;100449.29;107976;1259;72822;-79
2023/05/31 00:50:57;;;;;;;14.60;8.40;;;;;;;17.26;66.14;100448.79;108053;1254;72531;-79
2023/05/31 00:53:24;;;;;;;10.30;8.40;;;;;;;17.23;66.16;100450.79;108098;1256;73019;-79
2023/05/31 00:55:51;;;;;;;10.80;8.40;;;;;;;17.22;66.21;100456.41;108077;1254;61920;-80
2023/05/31 00:58:19;;;;;;;11.30;7.90;;;;;;;17.19;66.22;100458.79;107807;1254;61021;-79
2023/05/31 01:00:46;;;;;;;11.40;7.90;;;;;;;17.16;66.26;100459.34;108007;1254;73843;-79
2023/05/31 01:03:13;;;;;;;11.40;8.00;;;;;;;17.12;66.43;100459.52;108112;1254;72714;-82
2023/05/31 01:05:41;;;;;;;11.90;8.30;;;;;;;17.06;66.72;100459.59;108037;1254;72480;-80
2023/05/31 01:08:08;;;;;;;12.30;9.00;;;;;;;16.94;67.01;100462.22;107796;1255;62155;-81
2023/05/31 01:10:36;;;;;;;11.40;9.10;;;;;;;16.86;67.10;100464.88;107983;1260;60524;-82
2023/05/31 01:13:13;;;;;;;15.60;9.30;;;;;;;16.84;67.05;100469.53;108070;1254;72886;-80
2023/05/31 01:15:47;;;;;;;12.70;8.40;;;;;;;16.79;67.08;100466.35;108096;1254;73178;-80
2023/05/31 01:18:26;;;;;;;11.00;9.20;;;;;;;16.73;66.97;100465.11;108159;1254;72473;-79
2023/05/31 01:21:01;;;;;;;13.40;9.50;;;;;;;16.71;66.96;100465.45;108153;1254;61811;-79
2023/05/31 01:23:48;;;;;;;12.90;9.00;;;;;;;16.70;66.89;100464.13;107857;1257;59387;-80
2023/05/31 01:26:38;;;;;;;13.60;9.30;;;;;;;16.71;66.72;100464.96;107999;1254;73987;-80
2023/05/31 01:29:12;;;;;;;13.50;8.60;;;;;;;16.73;66.47;100464.94;108114;1254;72795;-80
2023/05/31 01:31:39;;;;;;;13.60;8.90;;;;;;;16.72;66.29;100467.92;108100;1254;72452;-80
2023/05/31 01:34:06;;;;;;;13.90;8.70;;;;;;;16.71;66.13;100467.72;108189;1254;61669;-80
2023/05/31 01:36:33;;;;;;;12.90;8.80;;;;;;;16.70;65.79;100465.20;108096;1257;58988;-80
2023/05/31 01:39:01;;;;;;;12.50;8.70;;;;;;;16.71;65.62;100474.41;108080;1254;72397;-81
2023/05/31 01:41:35;;;;;;;13.30;8.90;;;;;;;16.72;65.54;100481.63;108051;1254;72739;-80
2023/05/31 01:44:02;;;;;;;11.80;8.30;;;;;;;16.72;65.56;100476.66;108087;1254;71580;-81
2023/05/31 01:46:30;;;;;;;11.30;8.20;;;;;;;16.71;65.54;100474.13;108078;1257;61122;-80
2023/05/31 01:48:56;;;;;;;11.60;8.50;;;;;;;16.71;65.47;100471.77;108086;1256;59937;-79
2023/05/31 01:51:24;;;;;;;13.10;9.40;;;;;;;16.66;65.33;100477.20;108062;1257;73624;-80
2023/05/31 01:53:51;;;;;;;12.80;9.00;;;;;;;16.59;65.16;100470.54;108314;1254;72165;-81
2023/05/31 01:56:20;;;;;;;13.10;8.40;;;;;;;16.56;65.14;100475.06;108049;1254;72672;-79
2023/05/31 01:58:49;;;;;;;12.80;8.70;;;;;;;16.57;65.03;100477.70;107851;1257;62007;-79
2023/05/31 02:01:17;;;;;;;11.10;8.40;;;;;;;16.58;64.99;100477.35;107962;1254;60491;-79
2023/05/31 02:03:44;;;;;;;10.60;7.50;;;;;;;16.58;64.89;100478.70;107982;1254;75059;-79
2023/05/31 02:06:12;;;;;;;10.80;7.50;;;;;;;16.57;65.00;100481.14;107949;1256;406195;-80
2023/05/31 02:08:40;;;;;;;11.60;7.90;;;;;;;16.53;65.06;100483.21;108092;1256;72476;-80
2023/05/31 02:11:07;;;;;;;10.80;7.80;;;;;;;16.51;65.23;100481.96;108080;1254;62067;-79
2023/05/31 02:13:36;;;;;;;11.80;7.80;;;;;;;16.51;65.25;100483.67;108330;1254;60297;-79
2023/05/31 02:16:03;;;;;;;12.70;8.20;;;;;;;16.50;65.17;100490.02;108277;1254;72753;-80
2023/05/31 02:18:30;;;;;;;9.90;8.10;;;;;;;16.50;65.29;100492.49;108402;1257;71561;-80
2023/05/31 02:20:57;;;;;;;9.70;7.20;;;;;;;16.52;65.41;100492.63;107899;1256;72771;-80
2023/05/31 02:23:24;;;;;;;11.30;8.20;;;;;;;16.52;65.50;100492.02;108174;1254;61794;-79
2023/05/31 02:25:52;;;;;;;16.30;8.80;;;;;;;16.55;65.45;100495.95;108055;1254;60378;-79
2023/05/31 02:28:19;;;;;;;10.60;8.50;;;;;;;16.57;65.49;100499.86;108067;1256;72702;-80
2023/05/31 02:30:55;;;;;;;11.50;8.30;;;;;;;16.59;65.57;100501.27;108031;1254;74027;-80
2023/05/31 02:33:23;;;;;;;11.90;8.20;;;;;;;16.63;65.85;100503.03;108027;1254;72538;-79
2023/05/31 02:35:50;;;;;;;9.50;7.50;;;;;;;16.68;65.95;100506.55;107990;1254;60787;-79
2023/05/31 02:38:20;;;;;;;11.70;8.30;;;;;;;16.74;66.01;100509.52;108091;1254;61475;-80
2023/05/31 02:40:47;;;;;;;9.80;7.40;;;;;;;16.78;65.90;100504.25;108153;1254;72346;-80
2023/05/31 02:43:14;;;;;;;11.70;7.80;;;;;;;16.80;65.86;100508.52;108182;1254;72745;-80
2023/05/31 02:45:41;;;;;;;11.60;7.40;;;;;;;16.82;65.75;100507.40;108115;1257;72712;-80
2023/05/31 02:48:09;;;;;;;12.00;7.70;;;;;;;16.82;65.66;100500.66;108097;1254;61931;-80
2023/05/31 02:50:37;;;;;;;10.10;7.00;;;;;;;16.83;65.65;100502.86;108037;1257;61312;-80
2023/05/31 02:53:10;;;;;;;11.50;8.20;;;;;;;16.86;65.62;100504.48;108416;1254;72954;-79
2023/05/31 02:55:48;;;;;;;9.50;7.80;;;;;;;16.91;65.42;100503.73;108079;1254;73695;-78
2023/05/31 02:58:18;;;;;;;13.60;8.40;;;;;;;16.91;65.34;100504.36;108158;1254;72516;-79
2023/05/31 03:01:06;;;;;;;11.30;8.00;;;;;;;16.95;65.35;100513.31;107793;1257;60246;-80
2023/05/31 03:03:38;;;;;;;13.40;7.80;;;;;;;16.99;65.58;100517.77;108291;1254;60438;-80
2023/05/31 03:06:19;;;;;;;12.70;8.20;;;;;;;17.06;65.85;100524.07;108088;1257;73867;-80
2023/05/31 03:08:47;;;;;;;11.70;8.90;;;;;;;17.15;65.88;100521.82;108127;1257;72730;-80
2023/05/31 03:11:14;;;;;;;12.60;8.40;;;;;;;17.22;66.00;100531.85;108058;1255;72689;-80
2023/05/31 03:13:41;;;;;;;10.40;8.10;;;;;;;17.30;66.00;100533.14;108059;1254;62365;-81
2023/05/31 03:16:08;;;;;;;13.70;8.20;;;;;;;17.40;65.89;100551.56;108094;1254;60339;-80
2023/05/31 03:18:35;;;;;;;11.40;8.40;;;;;;;17.46;65.19;100545.92;108165;1254;73824;-80
2023/05/31 03:21:04;;;;;;;10.20;7.90;;;;;;;17.55;64.49;100540.38;108111;1254;71714;-80
2023/05/31 03:23:31;;;;;;;13.80;8.40;;;;;;;17.62;63.45;100546.83;108046;1254;72719;-81
2023/05/31 03:25:58;;;;;;;13.20;8.90;;;;;;;17.66;62.22;100543.11;108092;1254;60892;-79
2023/05/31 03:28:25;;;;;;;11.40;8.60;;;;;;;17.70;61.23;100542.21;108146;1257;60345;-81
2023/05/31 03:30:53;;;;;;;18.00;8.80;;;;;;;17.76;60.62;100542.47;108161;1259;74954;-80
2023/05/31 03:33:20;;;;;;;12.30;9.90;;;;;;;17.81;60.24;100545.99;108013;1257;73052;-80
2023/05/31 03:35:47;;;;;;;13.20;9.10;;;;;;;17.88;59.66;100548.85;108024;1257;72649;-80
2023/05/31 03:38:14;;;;;;;12.60;9.80;;;;;;;17.95;59.27;100546.59;108168;1254;61905;-80
2023/05/31 03:40:40;;;;;;;13.50;10.80;;;;;;;18.02;58.63;100551.50;108181;1254;60300;-80
2023/05/31 03:43:07;;;;;;;16.80;11.90;;;;;;;18.08;58.09;100550.17;108064;1256;73856;-79
2023/05/31 03:45:35;;;;;;;15.80;11.50;;;;;;;18.12;57.63;100547.38;108015;1254;74014;-80
2023/05/31 03:48:02;;;;;;;15.00;12.10;;;;;;;18.19;57.70;100547.80;108028;1255;72679;-79
2023/05/31 03:50:30;;;;;;;15.90;12.10;;;;;;;18.26;57.55;100544.00;108043;1256;60451;-79
2023/05/31 03:52:57;;;;;;;16.20;12.50;;;;;;;18.31;57.46;100553.28;108033;1254;61224;-81
2023/05/31 03:55:25;;;;;;;16.10;12.20;;;;;;;18.34;57.12;100545.70;108031;1256;73846;-80
2023/05/31 03:57:51;;;;;;;15.70;11.60;;;;;;;18.36;56.73;100554.08;108036;1256;72862;-81
2023/05/31 04:00:20;;;;;;;15.60;10.50;;;;;;;18.40;56.51;100557.60;108052;1254;72904;-80
2023/05/31 04:02:48;;;;;;;13.50;8.80;;;;;;;18.45;56.11;100565.46;108052;1254;60416;-80
2023/05/31 04:13:36;;;;;;;8.80;6.40;;;;;;;18.47;54.51;100577.29;108160;1254;72809;-79
2023/05/31 04:16:03;;;;;;;8.20;6.60;;;;;;;18.48;54.27;100577.52;108199;1258;72797;-80
2023/05/31 04:18:32;;;;;;;8.80;6.60;;;;;;;18.49;53.80;100575.64;108103;1254;60421;-79
2023/05/31 04:21:01;;;;;;;10.30;6.50;;;;;;;18.51;53.95;100577.49;108005;1254;60395;-79
2023/05/31 04:23:29;;;;;;;8.50;6.50;;;;;;;18.57;53.83;100579.88;108146;1254;75106;-78
2023/05/31 04:25:57;;;;;;;11.60;6.10;;;;;;;18.62;53.50;100588.02;108115;1256;73118;-80
2023/05/31 04:28:24;;;;;;;11.20;6.40;;;;;;;18.65;53.04;100587.52;108066;1256;71319;-80
2023/05/31 04:30:52;;;;;;;8.70;6.90;;;;;;;18.68;52.82;100588.75;108020;1256;60329;-79
2023/05/31 04:33:22;;;;;;;9.70;6.30;;;;;;;18.68;52.33;100593.81;107958;1256;60901;-80
2023/05/31 04:35:50;;;;;;;11.10;6.40;;;;;;;18.69;52.07;100592.98;108046;1257;73574;-80
2023/05/31 04:38:18;;;;;;;9.10;6.10;;;;;;;18.67;51.93;100592.29;107842;1256;73833;-79
2023/05/31 04:40:45;;;;;;;8.50;5.70;;;;;;;18.67;52.10;100594.29;108099;1254;72927;-80
2023/05/31 04:43:12;;;;;;;8.70;5.70;;;;;;;18.70;52.20;100597.50;108077;1257;61619;-81
2023/05/31 04:45:40;;;;;;;8.90;5.80;;;;;;;18.75;52.02;100600.30;108082;1256;61539;-81
2023/05/31 04:48:07;;;;;;;9.70;6.00;;;;;;;18.81;51.91;100607.32;108012;1256;73752;-79
2023/05/31 04:50:34;;;;;;;8.90;6.30;;;;;;;18.86;51.48;100608.10;108165;1254;72683;-81
2023/05/31 04:53:02;;;;;;;7.70;5.60;;;;;;;18.89;51.27;100611.50;108056;1254;71440;-80
2023/05/31 04:55:29;;;;;;;11.20;6.10;;;;;;;18.92;51.09;100608.77;108061;1254;60400;-80
2023/05/31 04:57:59;;;;;;;8.10;5.40;;;;;;;18.94;50.91;100609.52;108066;1254;60320;-80
2023/05/31 05:00:27;;;;;;;7.90;5.70;;;;;;;18.95;50.98;100610.79;108166;1254;73652;-81
2023/05/31 05:03:04;;;;;;;8.90;5.40;;;;;;;19.01;50.89;100612.98;108171;1254;72519;-81
2023/05/31 05:05:32;;;;;;;10.80;5.70;;;;;;;19.08;50.80;100616.80;108137;1256;72547;-80
2023/05/31 05:07:59;;;;;;;8.10;5.50;;;;;;;19.14;50.28;100618.07;108103;1257;60555;-81
2023/05/31 05:10:26;;;;;;;8.50;5.40;;;;;;;19.21;49.98;100620.01;108015;1257;60572;-80
2023/05/31 05:12:54;;;;;;;8.90;5.20;;;;;;;19.27;49.89;100623.02;108098;1256;74028;-81
2023/05/31 05:15:21;;;;;;;6.00;4.80;;;;;;;19.35;49.82;100623.08;107991;1256;72544;-81
2023/05/31 05:17:48;;;;;;;9.20;5.40;;;;;;;19.43;49.69;100624.79;108010;1260;72555;-81
2023/05/31 05:20:15;;;;;;;9.40;5.20;;;;;;;19.55;49.53;100628.25;107989;1254;60457;-80
2023/05/31 05:22:51;;;;;;;10.70;5.00;;;;;;;19.66;49.46;100625.73;108015;1255;60384;-80
2023/05/31 05:25:20;;;;;;;10.30;4.80;;;;;;;19.78;48.87;100626.90;108048;1254;72169;-81
2023/05/31 05:27:47;;;;;;;10.30;5.10;;;;;;;19.88;48.57;100629.23;108094;1257;72502;-80
2023/05/31 05:30:15;;;;;;;9.40;4.40;;;;;;;19.98;48.18;100635.33;108128;1254;71357;-80
2023/05/31 05:32:43;;;;;;;7.40;4.60;;;;;;;20.04;47.41;100632.30;108076;1254;60563;-82
2023/05/31 05:35:09;;;;;;;6.60;4.70;;;;;;;19.99;46.77;100633.75;108166;1254;60489;-80
2023/05/31 05:37:37;;;;;;;7.50;4.30;;;;;;;19.98;46.89;100636.11;108101;1257;73019;-81
2023/05/31 05:40:07;;;;;;;7.40;4.10;;;;;;;20.04;47.06;100631.55;107999;1254;72853;-81
2023/05/31 05:42:38;;;;;;;8.80;4.10;;;;;;;20.15;46.86;100631.67;107954;1255;73894;-81
2023/05/31 05:45:06;;;;;;;8.10;4.50;;;;;;;20.29;46.60;100632.04;108088;1254;61500;-80
2023/05/31 05:47:34;;;;;;;6.90;4.00;;;;;;;20.36;46.06;100629.11;108079;1255;60380;-80
2023/05/31 05:50:02;;;;;;;9.20;4.10;;;;;;;20.40;46.07;100629.83;108198;1258;73660;-80
2023/05/31 05:52:29;;;;;;;10.80;4.40;;;;;;;20.47;45.70;100623.83;108009;1256;72697;-80
2023/05/31 05:54:56;;;;;;;8.40;4.30;;;;;;;20.55;46.05;100620.71;107977;1256;70934;-79
2023/05/31 05:57:25;;;;;;;9.70;4.20;;;;;;;20.64;46.29;100622.80;107988;1254;60371;-80
2023/05/31 05:59:53;;;;;;;6.20;3.90;;;;;;;20.74;46.15;100619.23;108058;1255;60341;-80
2023/05/31 06:02:21;;;;;;;5.80;3.50;;;;;;;20.87;45.57;100617.95;108090;1254;72789;-79
2023/05/31 06:04:52;;;;;;;6.90;3.70;;;;;;;20.97;45.04;100621.61;108102;1257;71855;-81
2023/05/31 06:07:19;;;;;;;6.90;3.20;;;;;;;21.06;44.27;100621.33;108014;1255;71550;-80
2023/05/31 06:09:49;;;;;;;6.60;3.70;;;;;;;21.11;43.57;100620.70;108004;1257;60284;-79
2023/05/31 06:12:16;;;;;;;9.00;3.20;;;;;;;21.16;43.86;100626.58;108210;1254;60293;-80
2023/05/31 06:14:44;;;;;;;5.10;3.20;;;;;;;21.24;43.43;100629.11;108098;1257;74172;-80
2023/05/31 06:17:11;;;;;;;8.20;3.40;;;;;;;21.33;43.24;100631.86;108083;1257;72970;-79
2023/05/31 06:19:39;;;;;;;7.00;3.50;;;;;;;21.40;43.05;100630.46;108057;1256;72698;-80
2023/05/31 06:22:08;;;;;;;8.40;3.50;;;;;;;21.47;42.44;100629.19;108057;1255;60765;-79
2023/05/31 06:24:35;;;;;;;6.60;3.40;;;;;;;21.53;42.33;100631.19;108577;1254;60338;-81
2023/05/31 06:27:02;;;;;;;7.60;3.60;;;;;;;21.60;42.09;100634.64;108107;1254;72660;-81
2023/05/31 06:29:31;;;;;;;8.70;3.40;;;;;;;21.67;41.75;100634.21;108173;1258;72785;-80
2023/05/31 06:32:05;;;;;;;6.10;3.20;;;;;;;21.74;41.45;100636.98;108159;1257;72699;-80
2023/05/31 06:34:35;;;;;;;9.40;3.30;;;;;;;21.83;41.09;100635.61;108132;1255;60467;-79
2023/05/31 06:37:02;;;;;;;8.10;3.40;;;;;;;21.92;41.03;100631.45;108067;1255;60473;-80
2023/05/31 06:39:30;;;;;;;4.80;2.90;;;;;;;22.04;41.00;100640.41;108180;1257;73883;-80
2023/05/31 06:41:59;;;;;;;7.20;3.30;;;;;;;22.16;40.23;100637.70;108017;1256;72124;-80
2023/05/31 06:44:37;;;;;;;6.40;2.90;;;;;;;22.24;40.13;100640.88;108017;1257;72610;-80
2023/05/31 06:47:52;;;;;;;6.00;2.80;;;;;;;22.32;39.11;100641.16;108014;1255;60338;-80
2023/05/31 06:50:38;;;;;;;6.90;3.30;;;;;;;22.31;39.11;100638.74;108043;1255;60523;-81
2023/05/31 06:53:21;;;;;;;6.50;3.00;;;;;;;22.37;39.29;100636.44;108096;1257;73659;-80
2023/05/31 06:55:59;;;;;;;5.00;2.90;;;;;;;22.47;39.00;100637.05;108052;1255;71427;-80
2023/05/31 06:58:30;;;;;;;5.80;3.20;;;;;;;22.55;39.06;100636.14;108039;1254;72811;-80
2023/05/31 07:00:57;;;;;;;4.90;3.00;;;;;;;22.64;38.74;100634.90;108048;1254;60422;-79
2023/05/31 07:03:25;;;;;;;7.90;3.10;;;;;;;22.72;38.58;100632.30;108194;1254;60295;-79
2023/05/31 07:05:52;;;;;;;4.20;2.90;;;;;;;22.84;38.81;100635.10;108076;1254;73843;-81
2023/05/31 07:08:21;;;;;;;4.80;3.20;;;;;;;23.02;38.34;100639.55;108090;1254;72696;-80
2023/05/31 07:11:06;;;;;;;7.60;2.80;;;;;;;23.15;37.21;100638.58;108130;1255;72750;-80
2023/05/31 07:13:32;;;;;;;5.50;2.80;;;;;;;23.22;36.88;100636.22;108114;1255;60616;-79
2023/05/31 07:15:59;;;;;;;5.70;2.70;;;;;;;23.31;37.04;100634.42;108070;1255;60325;-80
2023/05/31 07:18:26;;;;;;;6.40;3.00;;;;;;;23.41;36.67;100630.38;108059;1255;73975;-80
2023/05/31 07:20:56;;;;;;;6.00;2.80;;;;;;;23.51;36.18;100634.80;108203;1254;72602;-81
2023/05/31 07:23:24;;;;;;;5.90;2.80;;;;;;;23.55;35.61;100631.66;108197;1257;72678;-81
2023/05/31 07:25:51;;;;;;;5.50;2.70;;;;;;;23.54;35.69;100625.41;108070;1254;61020;-80
2023/05/31 07:28:18;;;;;;;6.60;2.70;;;;;;;23.58;35.66;100629.73;108077;1255;60556;-81
2023/05/31 07:30:44;;;;;;;5.50;2.70;;;;;;;23.60;35.20;100625.50;108160;1254;73878;-80
2023/05/31 07:33:12;;;;;;;4.80;2.80;;;;;;;23.56;35.49;100628.79;108207;1257;72526;-82
2023/05/31 07:35:41;;;;;;;5.60;2.70;;;;;;;23.61;35.66;100631.99;108199;1254;73069;-79
2023/05/31 07:38:07;;;;;;;5.20;2.60;;;;;;;23.69;35.22;100631.80;108128;1254;60332;-81
2023/05/31 07:40:34;;;;;;;6.90;3.00;;;;;;;23.81;34.99;100633.96;108173;1254;60283;-81
2023/05/31 07:43:02;;;;;;;6.80;2.90;;;;;;;23.91;34.90;100637.36;108154;1254;73829;-81
2023/05/31 07:45:29;;;;;;;6.70;2.60;;;;;;;24.01;34.67;100636.32;108185;1255;72586;-80
2023/05/31 07:47:56;;;;;;;5.00;2.60;;;;;;;24.07;34.70;100632.23;108126;1254;72778;-80
2023/05/31 07:50:23;;;;;;;5.60;2.70;;;;;;;24.16;34.86;100626.76;108141;1255;60328;-80
2023/05/31 07:52:55;;;;;;;5.40;2.50;;;;;;;24.28;34.90;100623.76;108102;1256;60165;-81
2023/05/31 07:55:22;;;;;;;5.40;3.40;;;;;;;24.37;34.92;100631.09;108085;1254;73702;-80
2023/05/31 07:57:49;;;;;;;7.60;3.00;;;;;;;24.47;35.20;100631.09;108036;1257;71637;-79
2023/05/31 08:00:16;;;;;;;7.00;3.00;;;;;;;24.56;35.50;100629.45;108102;1257;71429;-79
2023/05/31 08:02:45;;;;;;;6.10;2.80;;;;;;;24.67;35.07;100629.19;108132;1257;60438;-81
2023/05/31 08:05:12;;;;;;;5.50;3.10;;;;;;;24.76;34.70;100630.14;108341;1255;60225;-81
2023/05/31 08:07:40;;;;;;;6.70;3.20;;;;;;;24.82;34.71;100636.36;108055;1254;73724;-80
2023/05/31 08:10:07;;;;;;;6.60;3.00;;;;;;;24.81;34.11;100635.73;108315;1254;71482;-79
2023/05/31 08:12:34;;;;;;;6.40;3.00;;;;;;;24.73;34.15;100634.11;108148;1254;72526;-80
2023/05/31 08:15:01;;;;;;;8.70;3.30;;;;;;;24.71;34.52;100630.39;108136;1255;60418;-81
2023/05/31 08:17:29;;;;;;;8.40;3.10;;;;;;;24.74;34.52;100636.73;108146;1254;60418;-80
2023/05/31 08:19:55;;;;;;;8.70;2.90;;;;;;;24.77;34.00;100638.67;108179;1258;73092;-80
2023/05/31 08:22:22;;;;;;;7.60;2.80;;;;;;;24.82;34.29;100640.98;108166;1254;72595;-81
2023/05/31 08:24:49;;;;;;;5.30;2.70;;;;;;;24.84;33.13;100637.91;108145;1257;72647;-81
2023/05/31 08:27:19;;;;;;;5.90;2.80;;;;;;;24.84;33.03;100644.99;108136;1257;60293;-80
2023/05/31 08:29:46;;;;;;;5.80;2.80;;;;;;;24.80;32.59;100646.39;108192;1258;60454;-82
2023/05/31 08:32:12;;;;;;;8.10;2.70;;;;;;;24.78;32.57;100640.71;108163;1257;71927;-79
2023/05/31 08:34:39;;;;;;;8.40;2.90;;;;;;;24.79;31.86;100650.13;108153;1255;70412;-80
2023/05/31 08:37:06;;;;;;;5.90;2.40;;;;;;;24.79;31.91;100642.30;108079;1258;72445;-79
2023/05/31 08:39:33;;;;;;;8.60;3.00;;;;;;;24.86;30.89;100639.98;108211;1254;60447;-81
2023/05/31 08:42:05;;;;;;;6.60;2.50;;;;;;;24.87;30.33;100641.41;108092;1254;60318;-81
2023/05/31 08:44:32;;;;;;;7.80;2.60;;;;;;;24.85;29.96;100642.60;108125;1254;74222;-81
2023/05/31 08:47:08;;;;;;;7.30;2.50;;;;;;;24.86;29.23;100642.16;108161;1254;72595;-80
2023/05/31 08:49:36;;;;;;;5.50;2.00;;;;;;;24.84;29.03;100647.49;108171;1254;73685;-81
2023/05/31 08:52:03;;;;;;;6.50;2.20;;;;;;;24.83;28.77;100640.77;108030;1254;60443;-81
2023/05/31 08:54:30;;;;;;;4.20;1.90;;;;;;;24.82;27.92;100643.63;108040;1254;60374;-81
2023/05/31 08:56:57;;;;;;;4.20;2.40;;;;;;;24.75;27.70;100641.89;108028;1257;72534;-81
2023/05/31 08:59:24;;;;;;;5.00;2.10;;;;;;;24.72;28.05;100653.13;107808;1257;71907;-81
2023/05/31 09:01:52;;;;;;;5.10;2.30;;;;;;;24.82;28.09;100648.08;108054;1257;72659;-80
2023/05/31 09:04:19;;;;;;;4.80;2.10;;;;;;;24.95;27.75;100641.55;108040;1255;60216;-81
2023/05/31 09:06:46;;;;;;;5.80;2.40;;;;;;;24.98;26.86;100639.75;108030;1256;60300;-80
2023/05/31 09:09:13;;;;;;;6.90;2.30;;;;;;;24.95;27.11;100635.42;108034;1257;73343;-81
2023/05/31 09:11:40;;;;;;;5.90;2.30;;;;;;;24.98;27.46;100638.17;108052;1257;72734;-79
2023/05/31 09:14:10;;;;;;;6.00;3.00;;;;;;;25.10;28.23;100643.42;108062;1257;72674;-81
2023/05/31 09:16:37;;;;;;;5.50;2.20;;;;;;;25.22;28.19;100636.45;108052;1255;60434;-81
2023/05/31 09:19:05;;;;;;;5.90;2.50;;;;;;;25.28;27.55;100635.89;108089;1256;60409;-83
2023/05/31 09:21:39;;;;;;;8.30;2.40;;;;;;;25.41;27.98;100635.26;108078;1256;73996;-80
2023/05/31 09:24:06;;;;;;;6.40;3.20;;;;;;;25.61;28.76;100642.19;108116;1256;72555;-83
2023/05/31 09:26:34;;;;;;;7.10;2.80;;;;;;;25.70;29.09;100637.02;108023;1259;73565;-81
2023/05/31 09:29:01;;;;;;;4.70;2.90;;;;;;;25.72;29.15;100638.98;107903;1257;60344;-81
2023/05/31 09:31:28;;;;;;;5.00;2.50;;;;;;;25.61;28.35;100632.20;108087;1257;60440;-80
2023/05/31 09:33:55;;;;;;;5.70;2.50;;;;;;;25.52;27.99;100634.25;108059;1257;72448;-82
2023/05/31 09:36:30;;;;;;;5.40;2.50;;;;;;;25.43;27.95;100636.70;108056;1257;71858;-81
2023/05/31 09:39:04;;;;;;;5.50;2.90;;;;;;;25.42;28.84;100634.98;108069;1256;72682;-83
2023/05/31 09:41:32;;;;;;;4.60;2.90;;;;;;;25.41;30.84;100633.53;108034;1256;60399;-82
2023/05/31 09:43:59;;;;;;;6.40;2.70;;;;;;;25.39;31.32;100635.44;108001;1257;60296;-81
2023/05/31 09:46:26;;;;;;;4.90;2.40;;;;;;;25.38;31.34;100631.27;107985;1259;72897;-81
2023/05/31 09:48:59;;;;;;;7.50;3.30;;;;;;;25.41;31.64;100632.60;108083;1256;72764;-82
2023/05/31 09:51:27;;;;;;;7.00;2.60;;;;;;;25.45;31.10;100634.48;107986;1254;72713;-82
2023/05/31 09:53:57;;;;;;;7.20;2.90;;;;;;;25.40;30.81;100626.08;108218;1256;60411;-81
2023/05/31 09:56:25;;;;;;;6.10;2.50;;;;;;;25.20;30.92;100626.00;107829;1261;60444;-81
2023/05/31 09:58:57;;;;;;;8.40;2.70;;;;;;;25.22;31.23;100621.29;108017;1254;73771;-80
2023/05/31 10:01:24;;;;;;;6.00;2.80;;;;;;;25.27;30.48;100630.63;108055;1258;71479;-80
2023/05/31 10:03:51;;;;;;;4.90;2.50;;;;;;;25.26;30.07;100621.31;107936;1257;72796;-82
2023/05/31 10:06:18;;;;;;;6.40;2.60;;;;;;;25.24;29.79;100623.98;108137;1257;60345;-80
2023/05/31 10:08:48;;;;;;;8.40;2.80;;;;;;;25.26;29.34;100626.00;108214;1254;60451;-81
2023/05/31 10:11:17;;;;;;;4.50;2.20;;;;;;;25.28;28.84;100620.05;108159;1257;72585;-81
2023/05/31 10:13:44;;;;;;;7.50;2.50;;;;;;;25.28;28.46;100623.85;108163;1257;73006;-81
2023/05/31 10:16:11;;;;;;;8.70;2.50;;;;;;;25.27;27.71;100628.66;108129;1255;71660;-81
2023/05/31 10:18:40;;;;;;;4.60;2.30;;;;;;;25.26;27.91;100627.23;108058;1254;60308;-80
2023/05/31 10:21:13;;;;;;;4.90;2.10;;;;;;;25.26;27.20;100628.49;108145;1255;60456;-81
2023/05/31 10:24:08;;;;;;;5.80;2.10;;;;;;;25.29;27.18;100627.94;108122;1254;72754;-81
2023/05/31 10:26:44;;;;;;;5.50;2.10;;;;;;;25.33;26.73;100624.66;108005;1257;72688;-80
2023/05/31 10:29:15;;;;;;;5.50;2.40;;;;;;;25.37;26.26;100633.60;107954;1256;72471;-81
2023/05/31 10:31:48;;;;;;;7.20;2.20;;;;;;;25.40;25.40;100633.98;108006;1257;60477;-80
2023/05/31 10:34:22;;;;;;;5.10;2.20;;;;;;;25.42;25.22;100632.21;108106;1255;60342;-83
2023/05/31 10:36:51;;;;;;;6.10;2.50;;;;;;;25.55;24.59;100635.49;108179;1254;73756;-80
2023/05/31 10:39:50;;;;;;;5.30;2.20;;;;;;;25.58;24.65;100630.70;108135;1256;71512;-80
2023/05/31 10:42:21;;;;;;;5.80;2.20;;;;;;;25.62;25.13;100636.11;108150;1258;71888;-80
2023/05/31 10:45:19;;;;;;;6.70;2.10;;;;;;;25.68;24.90;100636.19;108235;1255;60398;-80
2023/05/31 10:48:03;;;;;;;7.70;2.50;;;;;;;25.77;24.18;100639.17;108181;1258;60361;-80
2023/05/31 10:50:30;;;;;;;5.30;1.90;;;;;;;25.78;24.29;100635.91;108155;1258;73952;-82
2023/05/31 10:53:11;;;;;;;7.00;2.30;;;;;;;25.81;23.99;100631.80;108037;1257;72623;-80
2023/05/31 10:55:42;;;;;;;4.60;2.20;;;;;;;25.84;24.02;100637.33;108186;1257;72855;-82
2023/05/31 10:58:38;;;;;;;5.10;2.40;;;;;;;25.88;24.31;100629.75;108181;1254;61084;-81
2023/05/31 11:01:09;;;;;;;7.20;2.70;;;;;;;25.91;23.69;100628.95;108166;1254;60425;-80
2023/05/31 11:03:46;;;;;;;5.70;2.50;;;;;;;25.84;23.76;100632.80;108093;1254;73628;-80
2023/05/31 11:06:15;;;;;;;5.50;2.30;;;;;;;25.67;23.84;100625.30;107991;1254;72836;-80
2023/05/31 11:09:17;;;;;;;3.80;2.20;;;;;;;25.58;24.45;100632.02;108143;1258;71383;-80
2023/05/31 11:11:48;;;;;;;7.50;2.20;;;;;;;25.56;24.15;100630.97;107982;1254;61396;-80
2023/05/31 11:14:15;;;;;;;6.90;2.50;;;;;;;25.57;24.80;100631.33;108125;1255;60393;-80
2023/05/31 11:17:04;;;;;;;4.50;2.10;;;;;;;25.69;25.17;100635.16;108124;1257;73961;-80
2023/05/31 11:19:32;;;;;;;9.00;2.50;;;;;;;25.80;25.01;100639.34;108119;1254;73275;-80
2023/05/31 11:22:05;;;;;;;4.70;2.10;;;;;;;25.80;24.52;100632.60;107989;1256;72845;-80
2023/05/31 11:24:33;;;;;;;4.20;2.10;;;;;;;25.72;24.51;100625.41;108638;1259;59564;-81
2023/05/31 11:27:01;;;;;;;4.90;2.00;;;;;;;25.71;25.23;100634.35;108093;1254;59224;-79
2023/05/31 11:29:47;;;;;;;7.30;2.00;;;;;;;25.75;25.32;100630.07;108110;1258;73924;-81
2023/05/31 11:32:33;;;;;;;5.50;2.40;;;;;;;25.80;24.96;100624.90;108111;1254;72506;-79
2023/05/31 11:35:11;;;;;;;5.20;1.90;;;;;;;25.83;24.91;100633.40;108040;1259;70280;-80